Time;durP1;ratioP1;P1;durP2;ratioP2;P2;SDS_P1;SDS_P2;PMS_P1;PMS_P2;Temp;Humidity;BMP_temperature;BMP_pressure;BME280_temperature;BME280_humidity;BME280_pressure;Samples;Min_cycle;Max_cycle;Signal;HPM_P1;HPM_P2
2022/05/05 00:00:56;;;;;;;4.82;2.13;;;7.60;65.80;;;;;;5074902;28;20055;-90
2022/05/05 00:03:22;;;;;;;3.90;2.35;;;7.60;65.90;;;;;;5074989;28;20036;-89
2022/05/05 00:05:47;;;;;;;6.93;2.53;;;7.60;66.30;;;;;;5074886;28;20021;-88
2022/05/05 00:08:13;;;;;;;4.68;2.30;;;7.60;66.30;;;;;;5076264;28;20040;-88
2022/05/05 00:16:09;;;;;;;4.93;2.67;;;7.50;66.50;;;;;;5076000;28;20110;-87
2022/05/05 00:18:35;;;;;;;6.75;2.75;;;7.50;66.60;;;;;;5074553;28;20031;-87
2022/05/05 00:21:01;;;;;;;3.55;2.10;;;7.50;66.80;;;;;;5075611;28;20034;-87
2022/05/05 00:23:27;;;;;;;4.18;2.20;;;7.40;66.80;;;;;;5074502;28;20028;-89
2022/05/05 00:25:52;;;;;;;4.38;2.33;;;7.30;67.00;;;;;;5074536;28;20036;-88
2022/05/05 00:28:18;;;;;;;4.35;2.55;;;7.30;67.10;;;;;;5074398;28;20056;-88
2022/05/05 00:30:44;;;;;;;6.07;2.05;;;7.20;67.30;;;;;;5074450;28;20020;-90
2022/05/05 00:33:10;;;;;;;5.10;2.35;;;7.20;67.50;;;;;;5074437;28;20031;-89
2022/05/05 00:35:36;;;;;;;4.88;2.75;;;7.20;67.40;;;;;;5075129;28;20478;-87
2022/05/05 00:38:03;;;;;;;5.80;2.30;;;7.20;67.20;;;;;;5074444;28;20050;-88
2022/05/05 00:43:51;;;;;;;3.45;2.58;;;7.20;67.80;;;;;;5075423;28;20543;-87
2022/05/05 00:46:17;;;;;;;4.13;2.40;;;7.10;68.10;;;;;;5073670;28;20554;-88
2022/05/05 00:48:43;;;;;;;5.97;2.47;;;7.10;68.00;;;;;;5074082;28;20112;-89
2022/05/05 00:51:10;;;;;;;4.50;2.50;;;7.00;68.30;;;;;;5073859;28;20059;-89
2022/05/05 00:53:36;;;;;;;3.85;2.63;;;7.00;67.70;;;;;;5073883;28;20132;-88
2022/05/05 00:56:11;;;;;;;2.47;2.25;;;7.00;67.80;;;;;;5073420;28;20518;-87
2022/05/05 00:58:38;;;;;;;7.53;2.53;;;7.00;68.00;;;;;;5073835;28;20111;-87
2022/05/05 01:01:05;;;;;;;5.57;2.50;;;7.00;67.80;;;;;;5074707;28;20024;-88
2022/05/05 01:03:35;;;;;;;4.25;2.30;;;7.00;68.20;;;;;;5074022;28;20506;-88
2022/05/05 01:06:08;;;;;;;5.32;2.65;;;6.90;68.30;;;;;;5073862;28;20032;-90
2022/05/05 01:08:34;;;;;;;7.90;2.53;;;6.90;68.20;;;;;;5074896;28;20028;-90
2022/05/05 01:11:00;;;;;;;3.15;2.33;;;6.90;68.30;;;;;;5073697;28;20031;-90
2022/05/05 01:13:27;;;;;;;5.15;2.58;;;6.80;68.50;;;;;;5074201;28;20025;-89
2022/05/05 01:15:54;;;;;;;6.88;2.85;;;6.80;68.70;;;;;;5074468;28;20481;-90
2022/05/05 01:18:20;;;;;;;6.32;2.40;;;6.80;68.90;;;;;;5073508;28;20119;-88
2022/05/05 01:20:49;;;;;;;6.22;2.55;;;6.70;69.10;;;;;;5073549;28;20115;-89
2022/05/05 01:23:15;;;;;;;3.75;2.60;;;6.70;69.40;;;;;;5073656;28;20029;-90
2022/05/05 01:28:26;;;;;;;8.27;2.47;;;6.60;69.30;;;;;;5074707;28;20117;-89
2022/05/05 01:30:51;;;;;;;3.90;2.53;;;6.60;69.40;;;;;;5073609;28;20031;-89
2022/05/05 01:33:20;;;;;;;3.78;2.65;;;6.60;69.40;;;;;;5073636;28;20402;-89
2022/05/05 01:35:47;;;;;;;3.50;2.10;;;6.60;69.60;;;;;;5073488;28;20382;-90
2022/05/05 01:38:15;;;;;;;3.53;2.40;;;6.50;69.60;;;;;;5074461;28;20089;-89
2022/05/05 01:40:43;;;;;;;5.38;2.33;;;6.40;70.20;;;;;;5073333;28;20030;-89
2022/05/05 01:43:10;;;;;;;5.13;2.28;;;6.50;70.20;;;;;;5073673;28;20025;-89
2022/05/05 01:45:36;;;;;;;4.88;2.45;;;6.40;70.70;;;;;;5073594;28;20032;-90
2022/05/05 01:48:03;;;;;;;4.75;2.53;;;6.40;70.80;;;;;;5072997;28;20052;-89
2022/05/05 01:50:31;;;;;;;6.40;2.40;;;6.30;71.20;;;;;;5074339;28;20103;-89
2022/05/05 01:52:58;;;;;;;4.35;2.20;;;6.40;71.20;;;;;;5073272;28;20025;-88
2022/05/05 01:55:24;;;;;;;5.40;2.20;;;6.40;71.00;;;;;;5073503;28;20024;-89
2022/05/05 01:57:50;;;;;;;4.28;2.20;;;6.30;71.10;;;;;;5073472;28;20386;-88
2022/05/05 02:00:17;;;;;;;4.47;2.33;;;6.30;71.50;;;;;;5073296;28;20036;-89
2022/05/05 02:02:44;;;;;;;3.63;2.30;;;6.20;71.80;;;;;;5073130;28;20119;-88
2022/05/05 02:05:11;;;;;;;3.25;2.40;;;6.20;72.00;;;;;;5074115;28;20028;-89
2022/05/05 02:07:37;;;;;;;4.10;2.45;;;6.20;71.50;;;;;;5073080;28;20119;-90
2022/05/05 02:10:08;;;;;;;3.28;2.17;;;6.10;71.30;;;;;;5076480;28;20070;-90
2022/05/05 02:12:38;;;;;;;;;;;6.00;71.70;;;;;;5077538;28;20016;-88
2022/05/05 02:15:08;;;;;;;4.60;2.63;;;6.00;72.20;;;;;;5076954;28;19905;-86
2022/05/05 02:17:38;;;;;;;4.28;2.75;;;6.10;72.20;;;;;;5076983;28;20490;-88
2022/05/05 02:20:06;;;;;;;3.08;2.30;;;6.10;72.30;;;;;;5078037;28;20033;-89
2022/05/05 02:22:32;;;;;;;4.18;2.60;;;6.10;72.30;;;;;;5076684;28;20028;-86
2022/05/05 02:24:58;;;;;;;3.25;2.35;;;6.00;72.00;;;;;;5076635;28;20039;-87
2022/05/05 02:27:24;;;;;;;3.03;2.42;;;6.10;71.10;;;;;;5077867;28;20036;-89
2022/05/05 02:29:51;;;;;;;5.55;2.53;;;6.10;71.10;;;;;;5077808;28;20542;-89
2022/05/05 02:32:17;;;;;;;5.13;2.83;;;6.10;71.30;;;;;;5076478;28;20059;-89
2022/05/05 02:34:44;;;;;;;4.07;2.60;;;6.10;71.70;;;;;;5076197;28;20030;-87
2022/05/05 02:39:54;;;;;;;4.50;2.58;;;6.00;71.80;;;;;;5077837;28;20387;-89
2022/05/05 02:42:23;;;;;;;5.70;2.75;;;6.00;71.90;;;;;;5076402;28;20029;-87
2022/05/05 02:44:49;;;;;;;5.15;2.75;;;6.00;72.10;;;;;;5076600;28;20028;-89
2022/05/05 02:47:15;;;;;;;4.30;2.33;;;6.10;71.60;;;;;;5076155;28;20048;-86
2022/05/05 02:49:41;;;;;;;3.97;2.70;;;6.10;71.80;;;;;;5076191;28;20025;-87
2022/05/05 02:52:08;;;;;;;9.43;2.90;;;6.10;72.00;;;;;;5076050;28;20051;-87
2022/05/05 02:54:53;;;;;;;5.28;2.40;;;6.10;71.50;;;;;;5076261;28;20017;-88
2022/05/05 02:57:20;;;;;;;3.33;2.60;;;6.10;71.40;;;;;;5076017;28;20028;-88
2022/05/05 02:59:50;;;;;;;4.55;2.60;;;6.10;71.90;;;;;;5077139;28;20536;-87
2022/05/05 03:02:16;;;;;;;7.30;2.83;;;6.10;71.90;;;;;;5075988;28;20115;-89
2022/05/05 03:04:42;;;;;;;4.20;2.38;;;6.10;72.40;;;;;;5077113;28;20063;-87
2022/05/05 03:07:07;;;;;;;5.45;2.58;;;6.00;73.20;;;;;;5076025;28;20048;-91
2022/05/05 03:09:33;;;;;;;5.72;2.53;;;6.00;72.70;;;;;;5075989;28;20033;-88
2022/05/05 03:11:59;;;;;;;5.20;2.50;;;6.10;72.90;;;;;;5076040;28;20027;-86
2022/05/05 03:14:25;;;;;;;5.50;2.53;;;6.10;72.90;;;;;;5076081;28;20462;-91
2022/05/05 03:16:51;;;;;;;6.18;2.70;;;6.10;72.50;;;;;;5076092;28;20029;-91
2022/05/05 03:19:16;;;;;;;5.72;2.40;;;6.20;72.50;;;;;;5076741;28;20063;-90
2022/05/05 03:21:42;;;;;;;5.68;2.67;;;6.20;72.00;;;;;;5075911;28;20081;-87
2022/05/05 03:24:08;;;;;;;8.27;2.50;;;6.20;72.00;;;;;;5075812;28;20127;-88
2022/05/05 03:26:34;;;;;;;3.22;2.35;;;6.20;72.70;;;;;;5075519;28;20051;-89
2022/05/05 03:29:00;;;;;;;3.65;2.30;;;6.20;72.70;;;;;;5076648;28;20079;-87
2022/05/05 03:31:26;;;;;;;4.50;2.35;;;6.20;72.90;;;;;;5075699;28;20081;-90
2022/05/05 03:33:53;;;;;;;5.43;2.53;;;6.30;72.20;;;;;;5075594;28;20027;-89
2022/05/05 03:36:19;;;;;;;6.00;2.35;;;6.30;72.20;;;;;;5076306;28;20150;-87
2022/05/05 03:38:44;;;;;;;6.78;2.90;;;6.40;72.30;;;;;;5076459;28;20068;-89
2022/05/05 03:41:10;;;;;;;4.82;2.58;;;6.50;71.60;;;;;;5074824;28;20028;-86
2022/05/05 03:43:36;;;;;;;4.35;3.00;;;6.50;71.70;;;;;;5075320;28;20028;-86
2022/05/05 03:46:02;;;;;;;3.35;2.25;;;6.50;71.80;;;;;;5074749;28;20028;-85
2022/05/05 03:48:30;;;;;;;7.43;2.65;;;6.50;71.80;;;;;;5075145;28;20024;-86
2022/05/05 03:50:56;;;;;;;6.05;2.70;;;6.60;71.30;;;;;;5075934;28;20024;-87
2022/05/05 03:53:22;;;;;;;4.40;2.53;;;6.60;70.90;;;;;;5076470;28;20369;-88
2022/05/05 03:55:47;;;;;;;3.15;2.55;;;6.70;70.90;;;;;;5076528;28;20027;-91
2022/05/05 03:58:13;;;;;;;2.88;2.42;;;6.70;70.90;;;;;;5074875;28;20111;-88
2022/05/05 04:00:39;;;;;;;5.85;2.22;;;6.70;70.80;;;;;;5076224;28;20513;-88
2022/05/05 04:05:49;;;;;;;4.05;2.25;;;6.90;71.50;;;;;;5076558;28;20044;-85
2022/05/05 04:08:15;;;;;;;4.03;2.28;;;6.90;70.90;;;;;;5074653;28;20412;-87
2022/05/05 04:10:41;;;;;;;5.90;2.40;;;7.10;71.50;;;;;;5074625;28;20059;-86
2022/05/05 04:13:06;;;;;;;6.93;2.70;;;7.10;70.90;;;;;;5074624;28;20052;-87
2022/05/05 04:15:33;;;;;;;5.70;2.30;;;7.10;69.60;;;;;;5074819;28;20029;-89
2022/05/05 04:18:03;;;;;;;2.95;2.25;;;7.20;70.10;;;;;;5074481;28;20028;-89
2022/05/05 04:20:28;;;;;;;3.47;2.40;;;7.30;70.50;;;;;;5075646;28;20020;-89
2022/05/05 04:22:55;;;;;;;5.82;2.38;;;7.40;69.90;;;;;;5074477;28;20024;-87
2022/05/05 04:25:21;;;;;;;8.57;2.47;;;7.40;70.20;;;;;;5074485;28;20025;-90
2022/05/05 04:27:48;;;;;;;7.03;2.85;;;7.50;69.80;;;;;;5074247;28;20035;-86
2022/05/05 04:30:17;;;;;;;3.60;2.10;;;7.60;69.60;;;;;;5074087;28;20484;-87
2022/05/05 04:32:44;;;;;;;3.80;2.40;;;7.60;69.80;;;;;;5057197;28;20033;-87
2022/05/05 04:35:10;;;;;;;4.63;2.47;;;7.90;69.20;;;;;;5073812;28;20025;-86
2022/05/05 04:37:37;;;;;;;2.20;1.90;;;8.40;68.70;;;;;;5074022;28;20086;-89
2022/05/05 04:40:03;;;;;;;7.72;2.45;;;9.00;67.60;;;;;;5073716;28;20059;-89
2022/05/05 04:42:28;;;;;;;6.20;2.30;;;9.40;65.40;;;;;;5073701;28;20386;-85
2022/05/05 04:44:54;;;;;;;3.33;2.03;;;9.70;65.40;;;;;;5075297;28;20028;-87
2022/05/05 04:47:20;;;;;;;4.35;1.98;;;10.10;65.10;;;;;;5073510;28;20056;-88
2022/05/05 04:49:46;;;;;;;3.63;2.45;;;10.30;63.80;;;;;;5075136;28;20021;-90
2022/05/05 04:52:11;;;;;;;4.88;2.40;;;10.40;63.00;;;;;;5073751;28;20024;-87
2022/05/05 04:54:37;;;;;;;7.95;2.00;;;10.50;63.00;;;;;;5073641;28;20025;-90
2022/05/05 04:57:03;;;;;;;4.32;2.30;;;10.60;62.60;;;;;;5073767;28;20028;-88
2022/05/05 04:59:29;;;;;;;3.88;2.15;;;10.60;62.70;;;;;;5074844;28;20024;-88
2022/05/05 05:01:55;;;;;;;2.42;2.20;;;10.60;62.50;;;;;;5073437;28;20115;-87
2022/05/05 05:04:21;;;;;;;5.88;2.20;;;10.60;63.00;;;;;;5074826;28;20029;-87
2022/05/05 05:06:46;;;;;;;4.63;2.30;;;10.40;62.90;;;;;;5074854;28;20016;-87
2022/05/05 05:09:12;;;;;;;3.72;2.03;;;10.40;62.80;;;;;;5074658;28;20052;-87
2022/05/05 05:11:38;;;;;;;4.93;2.30;;;10.40;62.90;;;;;;5075050;28;20051;-88
2022/05/05 05:14:04;;;;;;;2.80;2.10;;;10.40;62.40;;;;;;5075036;28;20101;-88
2022/05/05 05:16:29;;;;;;;2.80;2.00;;;10.40;62.90;;;;;;5073580;28;20467;-86
2022/05/05 05:18:55;;;;;;;4.45;2.03;;;10.40;63.00;;;;;;5073446;28;20029;-87
2022/05/05 05:21:21;;;;;;;2.97;2.20;;;10.30;63.50;;;;;;5073367;28;20029;-89
2022/05/05 05:23:47;;;;;;;4.57;2.33;;;10.40;63.10;;;;;;5074405;28;20459;-87
2022/05/05 05:26:15;;;;;;;2.80;2.17;;;10.30;62.50;;;;;;5073445;28;20024;-90
2022/05/05 05:28:41;;;;;;;3.35;2.33;;;10.30;62.00;;;;;;5074477;28;20024;-88
2022/05/05 05:31:08;;;;;;;4.03;2.25;;;10.30;62.00;;;;;;5072520;28;20035;-88
2022/05/05 05:33:34;;;;;;;4.65;2.22;;;10.30;62.30;;;;;;5073240;28;20074;-88
2022/05/05 05:35:59;;;;;;;5.68;2.45;;;10.30;61.90;;;;;;5074042;28;20039;-86
2022/05/05 05:38:25;;;;;;;3.67;2.08;;;10.40;62.10;;;;;;5074073;28;20024;-86
2022/05/05 05:40:51;;;;;;;5.10;2.13;;;10.40;62.30;;;;;;5072874;28;20413;-87
2022/05/05 05:43:17;;;;;;;5.90;2.20;;;10.50;62.70;;;;;;5073038;28;20036;-87
2022/05/05 05:45:43;;;;;;;4.18;2.63;;;10.50;61.90;;;;;;5072835;28;20492;-86
2022/05/05 05:48:09;;;;;;;6.32;2.20;;;10.50;61.90;;;;;;5070898;28;20056;-88
2022/05/05 05:50:36;;;;;;;5.30;2.30;;;10.60;61.90;;;;;;5072275;28;20024;-87
2022/05/05 05:53:02;;;;;;;2.85;2.08;;;10.60;62.70;;;;;;5072077;28;20021;-89
2022/05/05 05:55:28;;;;;;;3.08;2.17;;;10.70;61.80;;;;;;5073076;28;20025;-86
2022/05/05 05:57:53;;;;;;;3.83;2.33;;;10.80;62.20;;;;;;5074066;28;20036;-86
2022/05/05 06:00:19;;;;;;;3.95;2.38;;;10.90;61.90;;;;;;5072976;28;20028;-86
2022/05/05 06:05:29;;;;;;;5.70;2.35;;;11.10;60.90;;;;;;5074291;28;20436;-85
2022/05/05 06:07:59;;;;;;;4.85;2.03;;;11.10;60.90;;;;;;5073818;28;20029;-86
2022/05/05 06:10:25;;;;;;;2.22;1.80;;;11.10;60.70;;;;;;5072772;28;20062;-86
2022/05/05 06:12:51;;;;;;;4.85;2.35;;;11.20;60.20;;;;;;5072600;28;20025;-86
2022/05/05 06:15:17;;;;;;;3.67;2.70;;;11.30;60.60;;;;;;5072852;28;20025;-86
2022/05/05 06:17:43;;;;;;;3.22;2.30;;;11.30;60.60;;;;;;5072640;28;20107;-88
2022/05/05 06:20:10;;;;;;;3.88;2.15;;;11.40;59.80;;;;;;5074069;28;20032;-87
2022/05/05 06:22:37;;;;;;;4.90;2.60;;;11.50;59.70;;;;;;5072602;28;20078;-86
2022/05/05 06:25:04;;;;;;;3.03;1.83;;;11.50;59.80;;;;;;5072445;28;20029;-88
2022/05/05 06:27:30;;;;;;;2.03;1.75;;;11.50;59.40;;;;;;5073934;28;20025;-85
2022/05/05 06:29:55;;;;;;;4.57;1.90;;;11.60;59.30;;;;;;5072739;28;20382;-86
2022/05/05 06:32:21;;;;;;;4.55;2.38;;;11.60;59.40;;;;;;5072513;28;20039;-88
2022/05/05 17:31:54;;;;;;;7.53;3.50;;;12.40;54.20;;;;;;5124677;27;20370;-89
2022/05/05 17:34:20;;;;;;;3.85;2.33;;;12.30;54.50;;;;;;5090934;28;20101;-88
2022/05/05 17:36:46;;;;;;;4.85;2.20;;;12.30;54.50;;;;;;5090523;28;20082;-88
2022/05/05 17:39:12;;;;;;;4.25;2.53;;;12.20;54.50;;;;;;5090468;28;20016;-87
2022/05/05 17:41:38;;;;;;;3.03;2.38;;;12.20;55.00;;;;;;5090227;28;20032;-87
2022/05/05 17:44:04;;;;;;;6.70;2.42;;;12.20;55.10;;;;;;5090230;28;20024;-87
2022/05/05 17:51:59;;;;;;;3.75;2.30;;;12.20;55.60;;;;;;5091648;28;20085;-88
2022/05/05 17:54:25;;;;;;;3.90;1.98;;;12.10;56.10;;;;;;5090124;28;20020;-87
2022/05/05 17:56:50;;;;;;;7.72;3.42;;;12.20;56.90;;;;;;5090323;28;20363;-88
2022/05/05 17:59:17;;;;;;;5.53;2.40;;;12.10;57.20;;;;;;5090029;28;20020;-88
2022/05/05 18:01:43;;;;;;;5.38;2.72;;;12.10;57.70;;;;;;5090068;28;20039;-88
2022/05/05 18:04:09;;;;;;;4.00;2.40;;;12.00;57.60;;;;;;5089852;28;20020;-88
2022/05/05 18:06:36;;;;;;;6.75;2.58;;;12.00;58.80;;;;;;5089896;28;20110;-87
2022/05/05 18:09:02;;;;;;;3.72;2.38;;;12.00;59.20;;;;;;5089883;28;20032;-88
2022/05/05 18:11:28;;;;;;;6.55;2.22;;;12.00;58.70;;;;;;5089368;28;20024;-87
2022/05/05 18:13:53;;;;;;;3.15;2.20;;;12.00;58.80;;;;;;5090949;28;20100;-88
2022/05/05 18:16:19;;;;;;;4.13;2.60;;;11.90;58.40;;;;;;5090732;28;20056;-88
2022/05/05 18:18:49;;;;;;;8.00;2.83;;;11.80;58.10;;;;;;5090582;28;20430;-88
2022/05/05 18:21:15;;;;;;;6.07;2.97;;;11.80;58.10;;;;;;5089724;28;20119;-87
2022/05/05 18:26:13;;;;;;;3.60;2.63;;;11.70;57.50;;;;;;5112148;27;20851;-87
2022/05/05 18:28:39;;;;;;;7.15;4.70;;;11.70;57.90;;;;;;5110296;28;20020;-87
2022/05/05 18:31:05;;;;;;;5.72;4.07;;;11.60;58.40;;;;;;5111997;28;20020;-88
2022/05/05 18:33:31;;;;;;;3.72;2.92;;;11.50;58.10;;;;;;5112240;28;20024;-88
2022/05/05 18:35:57;;;;;;;6.25;2.78;;;11.50;58.20;;;;;;5111970;28;20089;-87
2022/05/05 18:38:23;;;;;;;3.25;2.72;;;11.40;57.90;;;;;;5110701;28;20477;-87
2022/05/05 18:40:49;;;;;;;5.43;2.58;;;11.30;57.70;;;;;;5110670;28;20028;-87
2022/05/05 18:43:15;;;;;;;3.85;2.50;;;11.30;58.30;;;;;;5111750;28;20076;-87
2022/05/05 18:45:41;;;;;;;5.70;2.78;;;11.10;58.00;;;;;;5110480;28;20385;-88
2022/05/05 18:48:08;;;;;;;5.30;2.30;;;11.00;58.20;;;;;;5110590;28;20026;-88
2022/05/05 18:50:35;;;;;;;5.95;2.90;;;10.90;58.30;;;;;;5110373;28;20470;-87
2022/05/05 18:53:01;;;;;;;2.75;2.25;;;10.80;58.60;;;;;;5111745;28;20027;-87
2022/05/05 18:55:27;;;;;;;3.55;2.50;;;10.70;59.70;;;;;;5111350;28;20047;-86
2022/05/05 18:57:54;;;;;;;4.75;2.47;;;10.70;60.40;;;;;;5110331;28;20028;-87
2022/05/05 19:00:20;;;;;;;2.50;2.00;;;10.60;59.70;;;;;;5111410;28;20020;-86
2022/05/05 19:02:46;;;;;;;4.20;2.15;;;10.60;59.50;;;;;;5110132;28;20034;-86
2022/05/05 19:05:12;;;;;;;3.13;2.17;;;10.60;59.40;;;;;;5111282;28;20405;-87
2022/05/05 19:07:38;;;;;;;5.50;2.10;;;10.60;59.50;;;;;;5110418;28;20019;-86
2022/05/05 19:10:05;;;;;;;4.30;2.17;;;10.50;59.70;;;;;;5111316;28;20016;-86
2022/05/05 19:12:31;;;;;;;2.38;2.03;;;10.40;60.20;;;;;;5109880;28;20039;-85
2022/05/05 19:14:58;;;;;;;3.03;2.22;;;10.40;60.40;;;;;;5110004;28;20114;-87
2022/05/05 19:17:23;;;;;;;50.28;7.13;;;10.30;61.20;;;;;;5109350;28;20028;-87
2022/05/05 19:19:49;;;;;;;12.85;3.40;;;10.20;61.40;;;;;;5109974;28;20023;-88
2022/05/05 19:22:25;;;;;;;3.60;2.33;;;10.20;60.90;;;;;;5111214;28;20375;-88
2022/05/05 19:24:52;;;;;;;4.50;2.53;;;10.20;60.80;;;;;;5109735;28;20055;-88
2022/05/05 19:27:18;;;;;;;4.07;2.65;;;10.10;61.30;;;;;;5111058;28;20019;-88
2022/05/05 19:29:46;;;;;;;5.57;2.55;;;10.00;61.10;;;;;;5110998;28;20099;-88
2022/05/05 19:32:12;;;;;;;5.20;3.20;;;10.00;61.60;;;;;;5109905;28;20016;-89
2022/05/05 19:34:38;;;;;;;5.80;4.20;;;9.90;61.70;;;;;;5110723;28;20384;-89
2022/05/05 19:37:05;;;;;;;6.88;4.10;;;9.90;61.20;;;;;;5098950;28;20024;-89
2022/05/05 19:39:31;;;;;;;4.53;3.28;;;9.80;61.40;;;;;;5095703;28;20047;-90
2022/05/05 19:41:57;;;;;;;3.65;2.65;;;9.80;61.00;;;;;;5096641;28;20051;-89
2022/05/05 19:44:23;;;;;;;4.47;2.30;;;9.70;61.30;;;;;;5096625;28;20020;-89
2022/05/05 19:46:48;;;;;;;2.67;2.28;;;9.60;62.50;;;;;;5095560;28;20039;-88
2022/05/05 19:49:14;;;;;;;4.38;2.40;;;9.50;62.00;;;;;;5095382;28;20023;-88
2022/05/05 19:51:40;;;;;;;2.75;2.47;;;9.40;62.20;;;;;;5096523;28;20020;-88
2022/05/05 19:54:06;;;;;;;7.50;3.58;;;9.40;62.40;;;;;;5095405;28;20061;-88
2022/05/05 20:02:00;;;;;;;3.30;2.55;;;9.20;62.50;;;;;;5094229;28;20054;-89
2022/05/05 20:04:26;;;;;;;4.45;2.50;;;9.20;62.50;;;;;;5095232;28;20024;-88
2022/05/05 20:09:36;;;;;;;3.38;2.10;;;9.10;63.00;;;;;;5096606;28;20027;-88
2022/05/05 20:12:02;;;;;;;3.15;2.20;;;9.10;62.60;;;;;;5095240;28;20020;-88
2022/05/05 20:14:28;;;;;;;5.63;2.80;;;9.20;62.80;;;;;;5095216;28;20480;-88
2022/05/05 20:16:54;;;;;;;3.95;2.20;;;9.10;63.40;;;;;;5095917;28;20028;-88
2022/05/05 20:19:19;;;;;;;2.15;1.95;;;9.10;62.90;;;;;;5094954;28;20476;-88
2022/05/05 20:21:45;;;;;;;4.18;2.10;;;9.00;62.90;;;;;;5096057;28;20140;-88
2022/05/05 20:24:12;;;;;;;4.05;2.53;;;9.00;62.80;;;;;;5094590;28;20056;-88
2022/05/05 20:26:39;;;;;;;6.95;3.42;;;9.00;63.20;;;;;;5096044;28;20012;-89
2022/05/05 20:29:10;;;;;;;7.65;4.10;;;8.90;63.60;;;;;;5094651;28;20465;-91
2022/05/05 20:31:36;;;;;;;9.07;6.00;;;8.80;63.60;;;;;;5094848;28;20016;-92
2022/05/05 20:34:03;;;;;;;44.38;29.25;;;8.80;64.40;;;;;;5094784;28;20020;-87
2022/05/05 20:36:30;;;;;;;30.30;21.77;;;8.80;65.10;;;;;;5095516;28;20024;-90
2022/05/05 20:38:56;;;;;;;17.88;6.57;;;8.70;64.50;;;;;;5096116;28;20016;-87
2022/05/05 20:41:22;;;;;;;11.05;5.88;;;8.90;64.50;;;;;;5096135;28;20100;-88
2022/05/05 20:43:48;;;;;;;8.80;5.35;;;8.90;65.10;;;;;;5096105;28;20021;-88
2022/05/05 20:46:13;;;;;;;4.63;3.40;;;8.90;64.80;;;;;;5094912;28;20371;-88
2022/05/05 20:48:39;;;;;;;5.45;3.00;;;8.90;65.30;;;;;;5093961;28;20115;-87
2022/05/05 20:51:05;;;;;;;4.25;2.70;;;8.80;65.10;;;;;;5094677;28;20028;-87
2022/05/05 20:53:31;;;;;;;4.90;2.58;;;8.80;65.20;;;;;;5094475;28;20027;-87
2022/05/05 20:55:57;;;;;;;3.20;2.40;;;8.70;66.00;;;;;;5094712;28;20024;-87
2022/05/05 20:58:23;;;;;;;5.75;2.70;;;8.60;65.30;;;;;;5094607;28;20035;-87
2022/05/05 21:00:49;;;;;;;4.28;2.50;;;8.50;66.30;;;;;;5094663;28;20024;-88
2022/05/05 21:03:15;;;;;;;3.65;2.75;;;8.50;65.70;;;;;;5094642;28;20024;-88
2022/05/05 21:05:42;;;;;;;4.85;2.95;;;8.40;66.90;;;;;;5095872;28;20024;-88
2022/05/05 21:08:10;;;;;;;6.35;3.10;;;8.30;66.70;;;;;;5095771;28;20020;-88
2022/05/05 21:10:36;;;;;;;5.65;3.53;;;8.30;67.30;;;;;;5094406;28;20111;-88
2022/05/05 21:13:02;;;;;;;5.20;2.97;;;8.20;67.90;;;;;;5094114;28;20016;-89
2022/05/05 21:15:28;;;;;;;5.47;3.60;;;8.20;67.50;;;;;;5095152;28;20081;-84
2022/05/05 21:17:53;;;;;;;8.32;3.63;;;8.20;68.20;;;;;;5094732;28;20024;-84
2022/05/05 21:25:48;;;;;;;8.75;4.22;;;7.90;69.00;;;;;;5093630;28;20051;-85
2022/05/05 21:28:14;;;;;;;6.63;3.63;;;7.90;70.60;;;;;;5092876;28;20110;-85
2022/05/05 21:30:41;;;;;;;6.70;3.45;;;7.90;70.80;;;;;;5092833;28;20020;-85
2022/05/05 21:33:09;;;;;;;9.23;3.55;;;7.80;70.60;;;;;;5093383;28;20044;-85
2022/05/05 21:35:35;;;;;;;5.20;3.80;;;7.80;70.60;;;;;;5092900;28;20531;-84
2022/05/05 21:38:01;;;;;;;6.15;3.67;;;7.70;71.20;;;;;;5093090;28;20516;-85
2022/05/05 21:43:12;;;;;;;5.32;3.47;;;7.80;71.50;;;;;;5093378;28;20027;-83
2022/05/05 21:45:38;;;;;;;7.22;3.40;;;7.80;71.20;;;;;;5093734;28;20350;-83
2022/05/05 21:48:05;;;;;;;10.57;3.95;;;7.90;71.90;;;;;;5092173;28;20054;-83
2022/05/05 21:50:31;;;;;;;5.47;3.50;;;8.00;71.70;;;;;;5092326;28;20023;-83
2022/05/05 21:52:58;;;;;;;6.28;3.58;;;8.00;71.90;;;;;;5093523;28;20462;-83
2022/05/05 21:55:24;;;;;;;5.93;3.55;;;8.00;71.90;;;;;;5093613;28;20095;-83
2022/05/05 21:57:50;;;;;;;3.75;3.13;;;8.10;72.40;;;;;;5092175;28;20026;-83
2022/05/05 22:00:42;;;;;;;6.60;3.47;;;8.20;72.60;;;;;;5093282;28;20458;-83
2022/05/05 22:03:10;;;;;;;7.25;4.07;;;8.20;73.30;;;;;;5092840;28;20020;-83
2022/05/05 22:05:35;;;;;;;6.07;3.25;;;8.30;73.00;;;;;;5092140;28;20031;-83
2022/05/05 22:08:01;;;;;;;9.32;3.70;;;8.40;72.50;;;;;;5093370;28;20016;-83
2022/05/05 22:10:27;;;;;;;6.03;3.92;;;8.40;72.50;;;;;;5093484;28;20045;-83
2022/05/05 22:12:53;;;;;;;5.68;3.38;;;8.40;73.20;;;;;;5092181;28;20458;-83
2022/05/05 22:15:19;;;;;;;6.40;3.75;;;8.50;72.80;;;;;;5092088;28;20016;-83
2022/05/05 22:17:44;;;;;;;6.43;3.70;;;8.40;73.00;;;;;;5093342;28;20030;-83
2022/05/05 22:20:10;;;;;;;6.32;3.63;;;8.40;72.60;;;;;;5093278;28;20020;-84
2022/05/05 22:22:36;;;;;;;10.43;3.92;;;8.50;72.30;;;;;;5093393;28;20030;-83
2022/05/05 22:25:02;;;;;;;5.45;3.55;;;8.50;72.20;;;;;;5092720;28;20115;-84
2022/05/05 22:27:28;;;;;;;7.13;4.05;;;8.50;71.70;;;;;;5093177;28;20012;-83
2022/05/05 22:29:53;;;;;;;4.93;3.53;;;8.50;71.40;;;;;;5091973;28;20013;-83
2022/05/05 22:32:19;;;;;;;6.85;3.90;;;8.60;71.40;;;;;;5093157;28;20099;-83
2022/05/05 22:34:45;;;;;;;8.18;3.63;;;8.60;71.10;;;;;;5093170;28;20492;-83
2022/05/05 22:37:12;;;;;;;6.20;3.55;;;8.70;71.20;;;;;;5091872;28;20024;-83
2022/05/05 22:39:37;;;;;;;8.93;3.35;;;8.70;70.80;;;;;;5091896;28;20431;-83
2022/05/05 22:42:03;;;;;;;5.95;3.30;;;8.70;70.60;;;;;;5093143;28;20028;-83
2022/05/05 22:44:29;;;;;;;5.65;3.20;;;8.80;70.40;;;;;;5092048;28;20074;-83
2022/05/05 22:46:55;;;;;;;4.03;3.13;;;8.80;70.40;;;;;;5092372;28;20462;-83
2022/05/05 22:52:06;;;;;;;6.72;3.50;;;8.80;70.50;;;;;;5093815;28;20389;-83
2022/05/05 22:54:38;;;;;;;5.80;3.38;;;8.80;70.60;;;;;;5092410;28;20111;-83
2022/05/05 22:57:06;;;;;;;4.40;3.00;;;8.80;70.30;;;;;;5092295;28;20048;-83
2022/05/05 22:59:32;;;;;;;6.78;3.15;;;8.80;70.30;;;;;;5092328;28;20035;-83
2022/05/05 23:01:57;;;;;;;9.98;3.15;;;8.80;70.40;;;;;;5092946;28;20032;-85
2022/05/05 23:04:23;;;;;;;4.38;3.00;;;8.70;70.60;;;;;;5092199;28;20142;-85
2022/05/05 23:06:49;;;;;;;6.32;3.53;;;8.70;71.30;;;;;;5092392;28;20097;-85
2022/05/05 23:09:14;;;;;;;7.22;2.83;;;8.70;71.00;;;;;;5092596;28;20024;-85
2022/05/05 23:11:41;;;;;;;5.43;3.15;;;8.60;72.10;;;;;;5093986;28;20181;-84
2022/05/05 23:14:07;;;;;;;3.10;2.63;;;8.60;71.70;;;;;;5097475;28;20073;-84
2022/05/05 23:16:33;;;;;;;4.68;3.40;;;8.50;71.30;;;;;;5097345;28;20028;-85
2022/05/05 23:18:59;;;;;;;6.28;3.35;;;8.40;71.90;;;;;;5095945;28;20519;-84
2022/05/05 23:21:25;;;;;;;9.65;3.85;;;8.30;72.90;;;;;;5097248;28;20096;-85
2022/05/05 23:23:52;;;;;;;9.20;3.97;;;8.30;73.00;;;;;;5097039;28;20470;-85
2022/05/05 23:26:18;;;;;;;5.45;3.35;;;8.30;73.40;;;;;;5096131;28;20024;-85
2022/05/05 23:28:44;;;;;;;9.88;3.58;;;8.30;73.30;;;;;;5097187;28;20024;-85
2022/05/05 23:31:10;;;;;;;6.93;3.65;;;8.30;73.00;;;;;;5096004;28;20359;-85
2022/05/05 23:33:36;;;;;;;8.50;3.55;;;8.40;73.20;;;;;;5096970;28;20097;-85
2022/05/05 23:38:47;;;;;;;6.35;3.30;;;8.30;72.80;;;;;;5097332;28;20050;-85
2022/05/05 23:41:13;;;;;;;8.70;3.70;;;8.30;72.60;;;;;;5095873;28;20028;-85
2022/05/05 23:43:39;;;;;;;4.32;3.20;;;8.30;72.50;;;;;;5096925;28;20024;-85
2022/05/05 23:46:06;;;;;;;5.50;3.50;;;8.30;72.80;;;;;;5095799;28;20421;-85
2022/05/05 23:48:33;;;;;;;6.72;3.70;;;8.30;72.70;;;;;;5096746;28;20082;-85
2022/05/05 23:53:42;;;;;;;5.55;3.85;;;8.30;73.20;;;;;;5096987;28;20035;-85
2022/05/05 23:56:09;;;;;;;7.53;3.40;;;8.30;73.00;;;;;;5096779;28;20028;-85
2022/05/05 23:58:35;;;;;;;6.05;3.55;;;8.30;73.20;;;;;;5095479;28;20024;-85
